createdAt,value
2018-03-27T00:00:26.772Z,9.27
2018-03-27T00:01:01.270Z,10.65
2018-03-27T00:01:35.767Z,10.60
2018-03-27T00:02:09.501Z,9.55
2018-03-27T00:02:43.257Z,10.48
2018-03-27T00:03:16.983Z,9.23
2018-03-27T00:03:50.723Z,10.65
2018-03-27T00:04:24.510Z,10.00
2018-03-27T00:04:57.930Z,10.75
2018-03-27T00:05:32.439Z,11.98
2018-03-27T00:06:06.205Z,11.20
2018-03-27T00:06:39.953Z,12.40
2018-03-27T00:07:13.729Z,12.00
2018-03-27T00:07:47.493Z,12.93
2018-03-27T00:08:21.997Z,11.68
2018-03-27T00:08:55.728Z,12.48
2018-03-27T00:09:29.463Z,10.73
2018-03-27T00:10:03.235Z,12.50
2018-03-27T00:10:36.993Z,11.80
2018-03-27T00:11:10.735Z,11.02
2018-03-27T00:11:44.483Z,10.68
2018-03-27T00:12:18.233Z,10.00
2018-03-27T00:12:52.433Z,11.18
2018-03-27T00:13:26.167Z,10.95
2018-03-27T00:13:59.901Z,10.80
2018-03-27T00:14:33.627Z,10.48
2018-03-27T00:15:08.447Z,10.45
2018-03-27T00:15:42.997Z,10.15
2018-03-27T00:16:16.741Z,11.02
2018-03-27T00:16:51.239Z,10.63
2018-03-27T00:17:24.963Z,10.48
2018-03-27T00:17:58.695Z,10.43
2018-03-27T00:18:32.483Z,10.43
2018-03-27T00:19:06.322Z,10.15
2018-03-27T00:19:40.243Z,11.05
2018-03-27T00:20:14.362Z,10.77
2018-03-27T00:20:48.113Z,11.73
2018-03-27T00:21:22.615Z,10.75
2018-03-27T00:21:57.123Z,11.40
2018-03-27T00:22:31.051Z,9.70
2018-03-27T00:23:04.798Z,11.60
2018-03-27T00:23:39.457Z,11.88
2018-03-27T00:24:13.196Z,12.25
2018-03-27T00:24:46.925Z,10.70
2018-03-27T00:25:20.698Z,11.63
2018-03-27T00:25:55.205Z,11.02
2018-03-27T00:26:29.037Z,11.32
2018-03-27T00:27:01.627Z,11.32
2018-03-27T00:27:46.599Z,11.00
2018-03-27T00:28:31.415Z,10.82
2018-03-27T00:29:16.133Z,11.60
2018-03-27T00:30:01.083Z,11.12
2018-03-27T00:30:46.133Z,11.10
2018-03-27T00:31:31.768Z,11.10
2018-03-27T00:32:16.655Z,11.20
2018-03-27T00:33:02.310Z,10.55
2018-03-27T00:33:47.353Z,10.88
2018-03-27T00:34:32.213Z,11.25
2018-03-27T00:35:17.879Z,10.95
2018-03-27T00:36:03.188Z,12.00
2018-03-27T00:36:48.034Z,10.35
2018-03-27T00:37:32.799Z,10.80
2018-03-27T00:38:17.592Z,10.73
2018-03-27T00:39:02.469Z,11.27
2018-03-27T00:39:48.115Z,11.02
2018-03-27T00:40:33.767Z,10.85
2018-03-27T00:42:44.389Z,10.40
2018-03-27T00:43:18.113Z,9.57
2018-03-27T00:43:51.621Z,11.73
2018-03-27T00:44:25.335Z,12.55
2018-03-27T00:44:59.843Z,10.90
2018-03-27T00:45:34.327Z,10.38
2018-03-27T00:46:08.188Z,12.48
2018-03-27T00:46:42.807Z,11.50
2018-03-27T00:47:16.697Z,12.85
2018-03-27T00:47:52.011Z,11.98
2018-03-27T00:48:26.649Z,10.75
2018-03-27T00:49:00.409Z,11.48
2018-03-27T00:49:34.129Z,10.43
2018-03-27T00:50:07.850Z,11.70
2018-03-27T00:50:41.573Z,11.60
2018-03-27T00:51:15.297Z,10.73
2018-03-27T00:51:49.060Z,11.63
2018-03-27T00:52:22.839Z,11.23
2018-03-27T00:52:56.707Z,11.68
2018-03-27T00:53:30.439Z,11.75
2018-03-27T00:54:04.159Z,11.50
2018-03-27T00:54:37.886Z,10.73
2018-03-27T00:55:12.409Z,11.32
2018-03-27T00:55:46.900Z,10.80
2018-03-27T00:56:20.629Z,11.40
2018-03-27T00:56:54.405Z,10.93
2018-03-27T00:57:32.099Z,10.93
2018-03-27T00:58:05.851Z,11.85
2018-03-27T00:58:39.841Z,11.80
2018-03-27T00:59:13.618Z,10.68
2018-03-27T00:59:47.431Z,11.43
2018-03-27T01:00:20.521Z,11.43
2018-03-27T01:00:55.379Z,11.60
2018-03-27T01:01:29.328Z,11.10
2018-03-27T01:02:03.479Z,12.05
2018-03-27T01:02:37.979Z,10.75
2018-03-27T01:03:11.733Z,11.45
2018-03-27T01:03:46.252Z,11.07
2018-03-27T01:04:20.734Z,11.40
2018-03-27T01:04:54.238Z,11.80
2018-03-27T01:05:28.735Z,11.30
2018-03-27T01:06:02.462Z,12.25
2018-03-27T01:06:36.195Z,10.20
2018-03-27T01:07:09.963Z,12.15
2018-03-27T01:07:43.694Z,11.30
2018-03-27T01:08:17.423Z,10.90
2018-03-27T01:08:51.153Z,12.05
2018-03-27T01:09:24.892Z,10.95
2018-03-27T01:09:59.373Z,11.52
2018-03-27T01:10:33.880Z,11.52
2018-03-27T01:11:07.616Z,10.60
2018-03-27T01:11:42.413Z,10.40
2018-03-27T01:12:17.192Z,11.43
2018-03-27T01:12:50.915Z,10.90
2018-03-27T01:13:25.429Z,11.10
2018-03-27T01:13:59.925Z,10.10
2018-03-27T01:14:33.647Z,10.73
2018-03-27T01:15:07.405Z,10.35
2018-03-27T01:15:41.146Z,9.80
2018-03-27T01:16:14.876Z,11.12
2018-03-27T01:16:48.613Z,11.52
2018-03-27T01:17:22.369Z,10.07
2018-03-27T01:17:56.089Z,9.90
2018-03-27T01:18:30.576Z,9.73
2018-03-27T01:19:05.070Z,10.80
2018-03-27T01:19:38.465Z,11.10
2018-03-27T01:20:11.878Z,10.80
2018-03-27T01:20:44.947Z,10.70
2018-03-27T01:21:18.783Z,9.85
2018-03-27T01:21:52.535Z,11.35
2018-03-27T01:22:25.943Z,9.88
2018-03-27T01:22:59.724Z,10.13
2018-03-27T01:23:33.462Z,11.15
2018-03-27T01:24:06.848Z,10.35
2018-03-27T01:24:40.573Z,9.32
2018-03-27T01:25:14.546Z,10.85
2018-03-27T01:25:48.265Z,10.00
2018-03-27T01:26:21.993Z,9.95
2018-03-27T01:26:55.725Z,9.88
2018-03-27T01:27:30.603Z,10.23
2018-03-27T01:28:04.334Z,10.23
2018-03-27T01:28:38.831Z,9.63
2018-03-27T01:29:13.339Z,10.57
2018-03-27T01:29:47.053Z,9.10
2018-03-27T01:30:21.537Z,9.95
2018-03-27T01:30:55.255Z,9.63
2018-03-27T01:31:28.988Z,10.55
2018-03-27T01:32:02.716Z,9.88
2018-03-27T01:32:37.237Z,10.23
2018-03-27T01:33:11.726Z,10.38
2018-03-27T01:33:45.528Z,10.23
2018-03-27T01:34:20.052Z,10.25
2018-03-27T01:34:54.538Z,10.45
2018-03-27T01:35:28.264Z,9.80
2018-03-27T01:36:02.013Z,9.70
2018-03-27T01:36:35.753Z,10.20
2018-03-27T01:37:09.483Z,10.68
2018-03-27T01:37:43.249Z,10.30
2018-03-27T01:38:16.976Z,10.18
2018-03-27T01:38:50.377Z,9.88
2018-03-27T01:39:24.879Z,10.25
2018-03-27T01:39:59.390Z,10.23
2018-03-27T01:40:33.106Z,9.90
2018-03-27T01:41:06.830Z,10.38
2018-03-27T01:41:40.565Z,10.93
2018-03-27T01:42:15.069Z,9.93
2018-03-27T01:42:48.840Z,10.27
2018-03-27T01:43:22.575Z,11.23
2018-03-27T01:43:56.312Z,10.60
2018-03-27T01:44:30.028Z,10.07
2018-03-27T01:45:03.435Z,9.48
2018-03-27T01:45:37.946Z,10.50
2018-03-27T01:46:12.437Z,10.70
2018-03-27T01:46:46.930Z,10.65
2018-03-27T01:47:20.658Z,10.93
2018-03-27T01:47:54.752Z,10.40
2018-03-27T01:48:29.237Z,11.45
2018-03-27T01:49:02.976Z,11.18
2018-03-27T01:49:36.698Z,11.55
2018-03-27T01:50:10.438Z,10.90
2018-03-27T01:50:44.162Z,10.70
2018-03-27T01:51:17.894Z,10.73
2018-03-27T01:51:52.396Z,11.93
2018-03-27T01:52:26.126Z,10.85
2018-03-27T01:53:00.192Z,10.80
2018-03-27T01:53:33.928Z,12.00
2018-03-27T01:54:07.651Z,10.45
2018-03-27T01:54:41.378Z,10.73
2018-03-27T01:55:15.862Z,11.02
2018-03-27T01:55:49.592Z,10.93
2018-03-27T01:56:23.319Z,12.02
2018-03-27T01:56:57.041Z,11.82
2018-03-27T01:57:30.762Z,11.25
2018-03-27T01:58:04.570Z,12.75
2018-03-27T01:58:38.336Z,11.48
2018-03-27T01:59:12.822Z,11.98
2018-03-27T01:59:46.544Z,11.43
2018-03-27T02:00:21.051Z,11.65
2018-03-27T02:00:54.782Z,11.88
2018-03-27T02:01:28.527Z,11.38
2018-03-27T02:02:02.789Z,12.30
2018-03-27T02:02:36.523Z,11.80
2018-03-27T02:03:11.060Z,11.52
2018-03-27T02:03:44.794Z,12.10
2018-03-27T02:04:18.522Z,11.35
2018-03-27T02:04:52.024Z,12.25
2018-03-27T02:05:25.768Z,12.00
2018-03-27T02:05:59.493Z,13.05
2018-03-27T02:06:33.232Z,12.57
2018-03-27T02:07:07.152Z,12.10
2018-03-27T02:07:41.664Z,13.18
2018-03-27T02:08:16.503Z,12.60
2018-03-27T02:08:50.228Z,12.15
2018-03-27T02:09:23.960Z,12.02
2018-03-27T02:09:58.460Z,11.70
2018-03-27T02:10:32.459Z,13.43
2018-03-27T02:11:11.642Z,12.20
2018-03-27T02:11:51.486Z,11.65
2018-03-27T02:12:30.548Z,12.75
2018-03-27T02:13:10.418Z,13.05
2018-03-27T02:13:49.536Z,12.13
2018-03-27T02:14:28.848Z,12.68
2018-03-27T02:15:08.114Z,11.18
2018-03-27T02:15:47.384Z,12.02
2018-03-27T02:16:27.845Z,12.10
2018-03-27T02:17:07.584Z,12.43
2018-03-27T02:17:48.448Z,11.70
2018-03-27T02:18:27.960Z,12.37
2018-03-27T02:19:08.104Z,12.50
2018-03-27T02:19:49.078Z,13.13
2018-03-27T02:20:29.214Z,12.15
2018-03-27T02:21:09.253Z,12.80
2018-03-27T02:21:43.962Z,12.20
2018-03-27T02:22:18.281Z,11.63
2018-03-27T02:22:58.346Z,11.68
2018-03-27T02:23:31.822Z,12.70
2018-03-27T02:24:12.304Z,12.88
2018-03-27T02:24:46.034Z,12.27
2018-03-27T02:25:19.787Z,11.43
2018-03-27T02:25:53.812Z,12.77
2018-03-27T02:26:27.910Z,13.07
2018-03-27T02:27:02.732Z,13.10
2018-03-27T02:27:36.827Z,13.00
2018-03-27T02:28:10.928Z,11.98
2018-03-27T02:28:45.028Z,12.25
2018-03-27T02:29:19.052Z,13.73
2018-03-27T02:29:53.120Z,12.77
2018-03-27T02:30:27.162Z,11.90
2018-03-27T02:31:01.225Z,13.25
2018-03-27T02:31:35.184Z,12.60
2018-03-27T02:32:09.039Z,13.02
2018-03-27T02:32:43.827Z,12.93
2018-03-27T02:33:17.922Z,12.27
2018-03-27T02:33:55.297Z,13.00
2018-03-27T02:34:30.424Z,12.10
2018-03-27T02:35:05.370Z,12.65
2018-03-27T02:35:39.339Z,12.18
2018-03-27T02:36:13.358Z,12.50
2018-03-27T02:36:47.732Z,12.27
2018-03-27T02:37:21.637Z,12.13
2018-03-27T02:37:55.634Z,13.23
2018-03-27T02:38:30.185Z,12.30
2018-03-27T02:39:03.362Z,12.30
2018-03-27T02:39:37.104Z,11.57
2018-03-27T02:40:10.826Z,12.20
2018-03-27T02:40:44.541Z,12.40
2018-03-27T02:41:18.257Z,12.18
2018-03-27T02:41:52.756Z,12.90
2018-03-27T02:42:27.243Z,12.77
2018-03-27T02:43:00.757Z,13.57
2018-03-27T02:43:34.500Z,13.07
2018-03-27T02:44:08.218Z,13.73
2018-03-27T02:44:41.980Z,13.45
2018-03-27T02:45:15.706Z,14.27
2018-03-27T02:45:50.200Z,13.23
2018-03-27T02:46:23.688Z,13.98
2018-03-27T02:46:57.430Z,13.18
2018-03-27T02:47:31.155Z,13.45
2018-03-27T02:48:04.884Z,13.52
2018-03-27T02:48:39.147Z,12.95
2018-03-27T02:49:12.886Z,13.52
2018-03-27T02:49:46.847Z,12.90
2018-03-27T02:50:20.582Z,13.48
2018-03-27T02:50:54.313Z,13.48
2018-03-27T02:51:27.815Z,12.52
2018-03-27T02:52:01.534Z,13.75
2018-03-27T02:52:36.024Z,12.98
2018-03-27T02:53:09.748Z,13.55
2018-03-27T02:53:43.257Z,11.70
2018-03-27T02:54:16.989Z,13.30
2018-03-27T02:54:50.743Z,14.25
2018-03-27T02:55:24.470Z,13.70
2018-03-27T02:55:58.422Z,12.55
2018-03-27T02:56:32.309Z,12.15
2018-03-27T02:57:06.331Z,12.15
2018-03-27T02:57:40.415Z,13.77
2018-03-27T02:58:14.917Z,12.88
2018-03-27T02:58:48.917Z,13.77
2018-03-27T02:59:23.216Z,12.95
2018-03-27T02:59:58.342Z,13.00
2018-03-27T03:00:32.396Z,13.27
2018-03-27T03:01:05.726Z,13.23
2018-03-27T03:01:39.641Z,12.55
2018-03-27T03:02:13.408Z,13.20
2018-03-27T03:02:47.403Z,13.50
2018-03-27T03:03:22.327Z,14.05
2018-03-27T03:03:56.218Z,12.10
2018-03-27T03:04:30.321Z,13.43
2018-03-27T03:05:04.622Z,13.13
2018-03-27T03:05:38.725Z,12.85
2018-03-27T03:06:13.539Z,12.93
2018-03-27T03:06:47.534Z,12.60
2018-03-27T03:07:21.530Z,13.05
2018-03-27T03:07:55.526Z,12.88
2018-03-27T03:08:30.159Z,14.32
2018-03-27T03:09:03.626Z,14.18
2018-03-27T03:09:37.720Z,13.25
2018-03-27T03:10:12.539Z,13.88
2018-03-27T03:10:46.098Z,13.98
2018-03-27T03:11:20.128Z,12.95
2018-03-27T03:11:54.223Z,12.65
2018-03-27T03:12:28.327Z,13.10
2018-03-27T03:13:02.326Z,13.40
2018-03-27T03:13:36.418Z,13.88
2018-03-27T03:14:10.926Z,12.95
2018-03-27T03:14:44.653Z,13.32
2018-03-27T03:15:18.724Z,13.90
2018-03-27T03:15:52.818Z,13.25
2018-03-27T03:16:27.857Z,13.55
2018-03-27T03:17:01.944Z,12.88
2018-03-27T03:17:35.936Z,12.88
2018-03-27T03:18:10.035Z,13.35
2018-03-27T03:18:43.840Z,13.77
2018-03-27T03:19:17.829Z,13.82
2018-03-27T03:19:51.922Z,14.13
2018-03-27T03:20:26.636Z,13.35
2018-03-27T03:21:00.634Z,14.73
2018-03-27T03:21:34.732Z,14.25
2018-03-27T03:22:08.529Z,14.05
2018-03-27T03:22:42.520Z,13.05
2018-03-27T03:23:16.424Z,14.63
2018-03-27T03:23:50.414Z,14.77
2018-03-27T03:24:24.505Z,14.40
2018-03-27T03:24:59.228Z,14.32
2018-03-27T03:25:33.628Z,13.90
2018-03-27T03:26:08.346Z,13.95
2018-03-27T03:26:42.341Z,13.82
2018-03-27T03:27:16.347Z,13.52
2018-03-27T03:27:51.152Z,14.07
2018-03-27T03:28:25.866Z,13.60
2018-03-27T03:29:00.585Z,13.75
2018-03-27T03:29:34.679Z,13.75
2018-03-27T03:30:09.423Z,14.10
2018-03-27T03:30:43.704Z,13.48
2018-03-27T03:31:17.703Z,13.35
2018-03-27T03:31:51.695Z,14.00
2018-03-27T03:32:26.335Z,14.50
2018-03-27T03:33:00.227Z,13.70
2018-03-27T03:33:34.192Z,13.02
2018-03-27T03:34:08.910Z,12.77
2018-03-27T03:34:42.906Z,13.62
2018-03-27T03:35:17.621Z,12.93
2018-03-27T03:35:53.153Z,14.48
2018-03-27T03:36:28.381Z,13.82
2018-03-27T03:37:04.222Z,14.48
2018-03-27T03:37:38.836Z,13.60
2018-03-27T03:38:13.348Z,13.75
2018-03-27T03:38:47.894Z,14.15
2018-03-27T03:39:21.848Z,14.48
2018-03-27T03:39:55.948Z,13.60
2018-03-27T03:40:29.940Z,14.32
2018-03-27T03:41:05.066Z,13.45
2018-03-27T03:41:39.268Z,14.00
2018-03-27T03:42:13.983Z,13.85
2018-03-27T03:42:47.714Z,13.52
2018-03-27T03:43:21.666Z,14.05
2018-03-27T03:43:56.380Z,14.00
2018-03-27T03:44:31.096Z,14.10
2018-03-27T03:45:05.808Z,14.00
2018-03-27T03:45:41.348Z,13.82
2018-03-27T03:46:15.557Z,14.30
2018-03-27T03:46:49.555Z,13.93
2018-03-27T03:47:24.361Z,12.95
2018-03-27T03:47:58.460Z,14.40
2018-03-27T03:48:32.555Z,13.70
2018-03-27T03:49:07.751Z,13.18
2018-03-27T03:49:41.883Z,15.05
2018-03-27T03:50:16.214Z,13.60
2018-03-27T03:50:50.940Z,13.60
2018-03-27T03:51:24.930Z,14.00
2018-03-27T03:51:58.998Z,15.40
2018-03-27T03:52:33.706Z,14.13
2018-03-27T03:53:07.512Z,13.10
2018-03-27T03:53:41.602Z,14.45
2018-03-27T03:54:15.376Z,14.27
2018-03-27T03:54:49.882Z,14.05
2018-03-27T03:55:24.400Z,14.02
2018-03-27T03:55:59.124Z,13.70
2018-03-27T03:56:33.953Z,14.63
2018-03-27T03:57:08.040Z,13.23
2018-03-27T03:57:42.858Z,14.55
2018-03-27T03:58:16.854Z,14.77
2018-03-27T03:58:51.447Z,13.13
2018-03-27T03:59:25.939Z,13.57
2018-03-27T03:59:59.649Z,14.82
2018-03-27T04:00:34.151Z,14.07
2018-03-27T04:01:08.643Z,15.20
2018-03-27T04:01:42.671Z,14.23
2018-03-27T04:02:17.172Z,13.62
2018-03-27T04:02:51.672Z,14.13
2018-03-27T04:03:26.164Z,14.07
2018-03-27T04:03:59.892Z,14.05
2018-03-27T04:04:33.622Z,14.20
2018-03-27T04:05:07.010Z,14.43
2018-03-27T04:05:40.762Z,15.00
2018-03-27T04:06:14.488Z,14.75
2018-03-27T04:06:48.242Z,14.15
2018-03-27T04:07:21.974Z,14.75
2018-03-27T04:07:55.703Z,14.10
2018-03-27T04:08:30.184Z,13.93
2018-03-27T04:09:03.346Z,14.35
2018-03-27T04:09:37.064Z,15.05
2018-03-27T04:10:10.789Z,14.65
2018-03-27T04:10:44.517Z,14.75
2018-03-27T04:11:18.301Z,14.20
2018-03-27T04:11:52.207Z,13.25
2018-03-27T04:12:25.944Z,13.85
2018-03-27T04:13:00.442Z,14.38
2018-03-27T04:13:34.162Z,14.55
2018-03-27T04:14:07.887Z,13.90
2018-03-27T04:14:41.610Z,14.77
2018-03-27T04:15:15.329Z,14.10
2018-03-27T04:15:49.055Z,14.63
2018-03-27T04:16:22.776Z,15.18
2018-03-27T04:16:56.496Z,14.38
2018-03-27T04:17:30.986Z,14.27
2018-03-27T04:18:04.034Z,15.57
2018-03-27T04:18:38.519Z,15.00
2018-03-27T04:19:12.235Z,15.38
2018-03-27T04:19:45.946Z,14.55
2018-03-27T04:20:19.686Z,14.73
2018-03-27T04:20:53.419Z,12.68
2018-03-27T04:21:27.135Z,14.87
2018-03-27T04:22:01.950Z,14.60
2018-03-27T04:22:36.443Z,14.65
2018-03-27T04:23:10.162Z,14.65
2018-03-27T04:23:43.883Z,15.75
2018-03-27T04:24:17.603Z,14.13
2018-03-27T04:24:51.515Z,14.18
2018-03-27T04:25:26.021Z,15.23
2018-03-27T04:26:00.590Z,14.32
2018-03-27T04:26:34.329Z,13.60
2018-03-27T04:27:09.173Z,13.57
2018-03-27T04:27:42.894Z,14.60
2018-03-27T04:28:16.631Z,14.05
2018-03-27T04:28:50.791Z,14.52
2018-03-27T04:29:24.511Z,14.63
2018-03-27T04:29:58.227Z,15.32
2018-03-27T04:30:31.955Z,13.52
2018-03-27T04:31:05.387Z,14.82
2018-03-27T04:31:39.899Z,14.60
2018-03-27T04:32:14.428Z,14.35
2018-03-27T04:32:48.153Z,14.73
2018-03-27T04:33:21.887Z,13.23
2018-03-27T04:33:56.389Z,14.75
2018-03-27T04:34:30.154Z,15.05
2018-03-27T04:35:03.878Z,14.43
2018-03-27T04:35:38.378Z,15.63
2018-03-27T04:36:12.883Z,14.75
2018-03-27T04:36:46.613Z,14.10
2018-03-27T04:37:20.722Z,15.27
2018-03-27T04:37:54.214Z,14.45
2018-03-27T04:38:27.945Z,15.18
2018-03-27T04:39:01.677Z,13.60
2018-03-27T04:39:35.407Z,15.32
2018-03-27T04:40:09.122Z,13.70
2018-03-27T04:40:43.638Z,13.48
2018-03-27T04:41:18.154Z,14.73
2018-03-27T04:41:52.651Z,15.15
2018-03-27T04:42:27.192Z,13.82
2018-03-27T04:43:00.940Z,14.87
2018-03-27T04:43:34.668Z,15.40
2018-03-27T04:44:08.405Z,15.48
2018-03-27T04:44:42.126Z,16.75
2018-03-27T04:45:15.848Z,17.33
2018-03-27T04:45:49.582Z,14.27
2018-03-27T04:46:23.314Z,15.00
2018-03-27T04:46:57.807Z,14.65
2018-03-27T04:47:32.345Z,14.90
2018-03-27T04:48:06.066Z,15.40
2018-03-27T04:48:39.809Z,14.60
2018-03-27T04:49:14.314Z,15.20
2018-03-27T04:49:48.804Z,14.25
2018-03-27T04:50:22.531Z,15.43
2018-03-27T04:50:56.261Z,14.57
2018-03-27T04:51:29.983Z,14.70
2018-03-27T04:52:03.703Z,15.85
2018-03-27T04:52:38.197Z,14.65
2018-03-27T04:53:12.707Z,14.57
2018-03-27T04:53:47.340Z,15.70
2018-03-27T04:54:21.175Z,15.05
2018-03-27T04:54:55.077Z,15.50
2018-03-27T04:55:28.797Z,16.05
2018-03-27T04:56:03.307Z,15.85
2018-03-27T04:56:37.823Z,15.23
2018-03-27T04:57:12.321Z,15.27
2018-03-27T04:57:46.099Z,14.75
2018-03-27T04:58:19.832Z,16.67
2018-03-27T04:58:53.549Z,15.60
2018-03-27T04:59:26.958Z,15.70
2018-03-27T05:00:00.709Z,16.62
2018-03-27T05:00:34.435Z,16.05
2018-03-27T05:01:08.149Z,15.63
2018-03-27T05:01:41.860Z,16.55
2018-03-27T05:02:16.341Z,17.17
2018-03-27T05:02:50.095Z,16.30
2018-03-27T05:03:23.821Z,16.37
2018-03-27T05:03:57.555Z,16.40
2018-03-27T05:04:31.285Z,15.15
2018-03-27T05:05:05.015Z,16.10
2018-03-27T05:05:38.753Z,14.43
2018-03-27T05:06:12.485Z,14.70
2018-03-27T05:06:46.219Z,15.77
2018-03-27T05:07:20.128Z,16.65
2018-03-27T05:07:53.897Z,15.65
2018-03-27T05:08:27.635Z,17.00
2018-03-27T05:09:01.498Z,15.73
2018-03-27T05:09:35.223Z,16.92
2018-03-27T05:10:08.971Z,16.92
2018-03-27T05:10:42.674Z,17.55
2018-03-27T05:11:16.399Z,16.02
2018-03-27T05:11:50.154Z,16.58
2018-03-27T05:12:23.880Z,17.02
2018-03-27T05:12:58.017Z,16.92
2018-03-27T05:13:31.747Z,15.82
2018-03-27T05:14:05.471Z,16.98
2018-03-27T05:14:39.986Z,15.20
2018-03-27T05:15:13.732Z,15.70
2018-03-27T05:15:47.457Z,15.75
2018-03-27T05:16:21.399Z,15.63
2018-03-27T05:16:54.800Z,15.50
2018-03-27T05:17:28.530Z,15.55
2018-03-27T05:18:02.354Z,16.00
2018-03-27T05:18:37.016Z,14.70
2018-03-27T05:19:10.753Z,16.02
2018-03-27T05:19:45.233Z,15.82
2018-03-27T05:20:18.960Z,16.67
2018-03-27T05:20:52.689Z,14.73
2018-03-27T05:21:26.429Z,14.65
2018-03-27T05:22:00.914Z,15.40
2018-03-27T05:22:35.431Z,14.60
2018-03-27T05:23:09.171Z,15.02
2018-03-27T05:23:42.910Z,16.37
2018-03-27T05:24:16.619Z,15.63
2018-03-27T05:24:50.347Z,14.25
2018-03-27T05:25:24.077Z,14.45
2018-03-27T05:25:58.588Z,15.82
2018-03-27T05:26:33.134Z,15.38
2018-03-27T05:27:07.017Z,15.23
2018-03-27T05:27:41.616Z,15.80
2018-03-27T05:28:16.134Z,14.82
2018-03-27T05:28:50.641Z,15.38
2018-03-27T05:29:25.133Z,15.20
2018-03-27T05:29:59.658Z,18.00
2018-03-27T05:30:33.931Z,16.70
2018-03-27T05:31:07.331Z,17.65
2018-03-27T05:31:41.819Z,15.43
2018-03-27T05:32:15.542Z,16.45
2018-03-27T05:32:50.078Z,17.05
2018-03-27T05:33:23.969Z,16.90
2018-03-27T05:33:57.684Z,17.23
2018-03-27T05:34:31.405Z,17.00
2018-03-27T05:35:05.921Z,17.08
2018-03-27T05:35:39.636Z,16.25
2018-03-27T05:36:14.115Z,16.60
2018-03-27T05:36:47.836Z,16.33
2018-03-27T05:37:21.817Z,16.37
2018-03-27T05:37:56.319Z,16.65
2018-03-27T05:38:29.731Z,16.80
2018-03-27T05:39:03.147Z,17.80
2018-03-27T05:39:37.648Z,17.20
2018-03-27T05:40:11.578Z,17.77
2018-03-27T05:40:45.322Z,16.67
2018-03-27T05:41:19.058Z,18.10
2018-03-27T05:41:52.799Z,18.95
2018-03-27T05:42:26.525Z,17.92
2018-03-27T05:43:00.253Z,18.45
2018-03-27T05:43:35.077Z,17.55
2018-03-27T05:44:09.555Z,17.33
2018-03-27T05:44:43.282Z,17.48
2018-03-27T05:45:17.003Z,16.83
2018-03-27T05:45:50.723Z,16.70
2018-03-27T05:46:24.463Z,16.70
2018-03-27T05:46:58.199Z,17.48
2018-03-27T05:47:31.929Z,15.13
2018-03-27T05:48:06.415Z,16.48
2018-03-27T05:48:40.171Z,16.58
2018-03-27T05:49:13.893Z,16.73
2018-03-27T05:49:47.625Z,16.65
2018-03-27T05:50:21.497Z,15.93
2018-03-27T05:50:55.994Z,15.63
2018-03-27T05:51:29.725Z,16.37
2018-03-27T05:52:03.441Z,16.48
2018-03-27T05:52:37.181Z,15.48
2018-03-27T05:53:11.665Z,16.15
2018-03-27T05:53:45.649Z,16.70
2018-03-27T05:54:19.366Z,16.85
2018-03-27T05:54:53.623Z,16.00
2018-03-27T05:55:27.341Z,16.75
2018-03-27T05:56:01.095Z,15.13
2018-03-27T05:56:34.842Z,16.02
2018-03-27T05:57:08.563Z,16.23
2018-03-27T05:57:42.277Z,16.05
2018-03-27T05:58:15.995Z,15.75
2018-03-27T05:58:49.751Z,16.55
2018-03-27T05:59:23.493Z,15.82
2018-03-27T05:59:56.657Z,15.90
2018-03-27T06:00:30.161Z,15.65
2018-03-27T06:01:04.663Z,15.55
2018-03-27T06:01:38.398Z,16.50
2018-03-27T06:02:12.112Z,16.08
2018-03-27T06:02:45.873Z,15.98
2018-03-27T06:03:19.589Z,15.40
2018-03-27T06:03:54.121Z,15.70
2018-03-27T06:04:27.853Z,16.27
2018-03-27T06:05:01.594Z,15.73
2018-03-27T06:05:35.497Z,15.60
2018-03-27T06:06:09.225Z,15.93
2018-03-27T06:06:43.710Z,16.15
2018-03-27T06:07:17.439Z,16.70
2018-03-27T06:07:51.151Z,16.80
2018-03-27T06:08:24.883Z,16.50
2018-03-27T06:08:58.745Z,17.52
2018-03-27T06:09:32.264Z,17.08
2018-03-27T06:10:05.974Z,15.93
2018-03-27T06:10:40.459Z,18.10
2018-03-27T06:11:14.195Z,16.80
2018-03-27T06:11:47.920Z,17.67
2018-03-27T06:12:21.915Z,16.45
2018-03-27T06:12:55.635Z,15.98
2018-03-27T06:13:29.339Z,17.35
2018-03-27T06:14:03.932Z,16.40
2018-03-27T06:14:37.656Z,16.42
2018-03-27T06:15:11.389Z,17.08
2018-03-27T06:15:45.118Z,16.30
2018-03-27T06:16:19.381Z,15.93
2018-03-27T06:16:53.109Z,16.62
2018-03-27T06:17:27.607Z,15.43
2018-03-27T06:18:01.349Z,16.27
2018-03-27T06:18:34.725Z,15.73
2018-03-27T06:19:08.507Z,16.70
2018-03-27T06:19:42.066Z,15.23
2018-03-27T06:20:15.452Z,17.27
2018-03-27T06:20:49.929Z,16.27
2018-03-27T06:21:23.667Z,16.17
2018-03-27T06:21:57.382Z,16.75
2018-03-27T06:22:31.091Z,16.98
2018-03-27T06:23:04.825Z,16.00
2018-03-27T06:23:39.319Z,15.75
2018-03-27T06:24:13.092Z,16.23
2018-03-27T06:24:46.849Z,16.35
2018-03-27T06:25:20.595Z,16.62
2018-03-27T06:25:54.322Z,16.90
2018-03-27T06:26:28.068Z,16.75
2018-03-27T06:27:01.817Z,17.02
2018-03-27T06:27:35.592Z,16.92
2018-03-27T06:28:09.336Z,16.10
2018-03-27T06:28:43.132Z,17.65
2018-03-27T06:29:17.997Z,15.82
2018-03-27T06:29:51.735Z,15.98
2018-03-27T06:30:25.241Z,15.65
2018-03-27T06:30:58.983Z,16.40
2018-03-27T06:31:32.739Z,16.80
2018-03-27T06:32:07.235Z,16.80
2018-03-27T06:32:40.631Z,16.75
2018-03-27T06:33:15.140Z,17.15
2018-03-27T06:33:49.661Z,14.95
2018-03-27T06:34:23.875Z,16.17
2018-03-27T06:34:57.619Z,15.88
2018-03-27T06:35:31.331Z,15.85
2018-03-27T06:36:05.801Z,16.30
2018-03-27T06:36:39.549Z,16.00
2018-03-27T06:37:13.279Z,19.20
2018-03-27T06:37:47.013Z,17.50
2018-03-27T06:38:21.539Z,16.90
2018-03-27T06:38:55.316Z,15.70
2018-03-27T06:39:29.840Z,16.27
2018-03-27T06:40:03.235Z,16.02
2018-03-27T06:40:36.981Z,15.50
2018-03-27T06:41:10.710Z,16.67
2018-03-27T06:41:44.434Z,15.15
2018-03-27T06:42:18.196Z,15.75
2018-03-27T06:42:51.945Z,15.68
2018-03-27T06:43:25.680Z,16.67
2018-03-27T06:43:59.413Z,16.05
2018-03-27T06:44:33.171Z,16.50
2018-03-27T06:45:06.890Z,15.50
2018-03-27T06:45:40.615Z,16.58
2018-03-27T06:46:15.102Z,15.52
2018-03-27T06:46:48.829Z,16.20
2018-03-27T06:47:23.437Z,16.50
2018-03-27T06:47:57.174Z,15.80
2018-03-27T06:48:30.905Z,15.80
2018-03-27T06:49:04.620Z,16.55
2018-03-27T06:49:38.707Z,17.33
2018-03-27T06:50:12.447Z,16.95
2018-03-27T06:50:46.185Z,16.70
2018-03-27T06:51:20.687Z,17.02
2018-03-27T06:51:55.187Z,16.37
2018-03-27T06:52:28.917Z,17.48
2018-03-27T06:53:02.650Z,16.08
2018-03-27T06:53:36.385Z,16.25
2018-03-27T06:54:10.554Z,17.00
2018-03-27T06:54:44.326Z,16.10
2018-03-27T06:55:18.048Z,16.15
2018-03-27T06:55:52.547Z,15.63
2018-03-27T06:56:26.254Z,16.48
2018-03-27T06:57:00.761Z,18.12
2018-03-27T06:57:35.256Z,16.15
2018-03-27T06:58:08.994Z,15.95
2018-03-27T06:58:42.715Z,16.00
2018-03-27T06:59:16.456Z,16.67
2018-03-27T06:59:50.558Z,16.05
2018-03-27T07:00:24.284Z,17.12
2018-03-27T07:00:58.057Z,16.67
2018-03-27T07:01:31.972Z,16.48
2018-03-27T07:02:05.391Z,16.90
2018-03-27T07:02:39.290Z,16.67
2018-03-27T07:03:13.804Z,15.35
2018-03-27T07:03:47.727Z,15.30
2018-03-27T07:04:21.479Z,16.35
2018-03-27T07:04:55.507Z,16.73
2018-03-27T07:05:29.277Z,15.50
2018-03-27T07:06:03.171Z,16.02
2018-03-27T07:06:37.652Z,16.23
2018-03-27T07:07:11.411Z,16.00
2018-03-27T07:07:46.146Z,15.88
2018-03-27T07:08:19.904Z,15.60
2018-03-27T07:08:54.585Z,16.80
2018-03-27T07:09:29.076Z,15.13
2018-03-27T07:10:03.124Z,16.17
2018-03-27T07:10:36.940Z,15.43
2018-03-27T07:11:10.830Z,16.70
2018-03-27T07:11:44.715Z,17.45
2018-03-27T07:12:18.449Z,16.27
2018-03-27T07:12:52.256Z,16.80
2018-03-27T07:13:25.989Z,15.95
2018-03-27T07:13:59.716Z,14.73
2018-03-27T07:14:33.487Z,15.52
2018-03-27T07:15:08.164Z,16.30
2018-03-27T07:15:42.021Z,15.45
2018-03-27T07:16:15.902Z,15.80
2018-03-27T07:16:49.882Z,16.00
2018-03-27T07:17:24.559Z,17.73
2018-03-27T07:17:58.716Z,17.17
2018-03-27T07:18:32.494Z,15.07
2018-03-27T07:19:07.150Z,15.95
2018-03-27T07:19:41.754Z,14.95
2018-03-27T07:20:15.950Z,15.48
2018-03-27T07:20:49.700Z,15.88
2018-03-27T07:21:23.431Z,16.00
2018-03-27T07:21:57.254Z,15.73
2018-03-27T07:22:31.006Z,15.50
2018-03-27T07:23:04.754Z,15.05
2018-03-27T07:23:38.478Z,15.25
2018-03-27T07:24:12.230Z,14.40
2018-03-27T07:24:45.958Z,15.48
2018-03-27T07:25:19.716Z,15.68